Accueil
METAR-TAF:

METAR-TAF

Aéroports :

Aéroport international José-Martí

La Havane, Cuba

latitude: 22-59N, longitude: 082-24W, altitude: 59 m

Observation

Le bulletin a été fait il y a 52 minutes, à 04:55 UTC
Vent 3 kt de nord-est
Température 22°C
Humidité 100%
Pression 1019 hPa
Visibilité: 9000 m
Quelques nuages à une hauteur de 3000 ft

METAR: MUHA 210455Z 05003KT 9000 FEW030 22/22 Q1019

Heure: 00:47 (05:47 UTC)

Prévision

Le bulletin a été fait il y a 47 minutes, à 05:00 UTC
Prévision valable du 21 à 06 UTC au 22 à 06 UTC
Vent 3 kt de direction variable
Visibilité: 9000 m
Quelques nuages à une hauteur de 3000 ft
Evoluant progressivement
du 21 à 13 UTC au 21 à 15 UTC
Vent 10 kt de nord
Evoluant progressivement
du 22 à 01 UTC au 22 à 03 UTC
Vent 3 kt de direction variable

TAF: MUHA 210500Z 2106/2206 VRB03KT 9000 FEW030 BECMG 2113/2115 35010KT BECMG 2201/2203 VRB03KT

Observations et prévisions météorologiques de plus de 4000 aéroports (messages METAR et TAF).

Les stations disponibles sont représentées par des disques jaunes et rouges sur la carte.

Passer la souris dessus pour voir le nom de la station.

Cliquer dessus pour voir les observations et prévisions météorologiques.

Pour changer de carte: cliquez sur les boutons verts avec une croix noire pour zoomer, sur le bouton vert avec un tiret pour effectuer un zoom arrière, ou sur les flèches vertes pour les cartes adjacentes.


METAR-TAF: